Flight Track Log - Related Links

Times and Time Zones

All times are in EST time to prevent confusion due to time zone crossing. See the DAL1515 flight status page for this flight to view local times or setup timezone preferences in your user account.

Time Position Orientation Groundspeed Altitude Reporting Facility
EST Latitude Longitude Course Direction KTS MPH feet Rate Location/Type
Thu 07:59:23 PM 33.6500 -84.4500 North 152 175 2,600  Level Atlanta TRACON
Thu 08:00:23 PM 33.6667 -84.5167 287° West 228 262 4,700 2,450 Climbing Atlanta TRACON
Thu 08:01:00 PM 33.8513 -84.1846 320° Northwest  Level FlightAware Approximate
Thu 08:01:23 PM 33.7167 -84.5833 312° West 261 300 7,500  Level Atlanta TRACON
Thu 08:02:00 PM 33.9558 -84.2667 North  Level FlightAware Approximate
Thu 08:02:23 PM 33.7833 -84.5833 360° North 282 325 9,800  Level Atlanta TRACON
Thu 08:03:00 PM 34.0849 -84.2667 North  Level FlightAware Approximate
Thu 08:03:23 PM 33.8500 -84.5167 40° Northeast 302 348 10,300  Level Atlanta TRACON
Thu 08:04:00 PM 34.2141 -84.2667 North  Level FlightAware Approximate
Thu 08:04:51 PM 33.9461 -84.4019 45° Northeast 359 413 12,200  Level Atlanta Center
Thu 08:05:51 PM 34.0528 -84.3622 17° North 374 430 14,300 2,300 Climbing Atlanta Center
Thu 08:06:51 PM 34.1656 -84.3225 16° North 398 458 16,800 2,350 Climbing Atlanta Center
Thu 08:07:51 PM 34.2783 -84.2878 14° North 422 486 19,000 2,050 Climbing Atlanta Center
Thu 08:08:51 PM 34.3994 -84.2553 12° North 435 501 20,900 1,700 Climbing Atlanta Center
Thu 08:09:51 PM 34.5331 -84.2228 11° North 435 501 22,400 1,750 Climbing Atlanta Center
Thu 08:10:51 PM 34.6603 -84.1928 11° North 451 519 24,400 2,000 Climbing Atlanta Center
Thu 08:11:51 PM 34.7814 -84.1678 10° North 446 513 26,400 2,000 Climbing Atlanta Center
Thu 08:12:51 PM 34.9025 -84.1375 12° North 446 513 28,400 1,850 Climbing Atlanta Center
Thu 08:13:51 PM 35.0236 -84.1097 11° North 446 513 30,100 1,300 Climbing Atlanta Center
Thu 08:14:51 PM 35.1425 -84.0794 12° North 440 506 31,000 1,000 Climbing Atlanta Center
Thu 08:15:51 PM 35.2633 -84.0539 10° North 440 506 32,100 1,000 Climbing Atlanta Center
Thu 08:16:51 PM 35.3844 -84.0233 12° North 440 506 33,000 450 Climbing Atlanta Center
Thu 08:17:51 PM 35.5033 -83.9928 12° North 440 506 33,000  Level Atlanta Center
Thu 08:18:51 PM 35.6244 -83.9647 11° North 440 506 33,000  Level Atlanta Center
Thu 08:19:51 PM 35.7433 -83.9339 12° North 435 501 33,000  Level Atlanta Center
Thu 08:20:51 PM 35.8642 -83.9056 11° North 430 495 33,000  Level Atlanta Center
Thu 08:21:51 PM 35.9789 -83.8489 22° Northeast 430 495 33,000  Level Atlanta Center
Thu 08:22:51 PM 36.0914 -83.7767 27° Northeast 440 506 33,000  Level Atlanta Center
Thu 08:23:51 PM 36.2017 -83.7069 27° Northeast 445 512 33,000  Level Atlanta Center
Thu 08:24:55 PM 36.3133 -83.6344 28° Northeast 455 524 33,000  Level Indianapolis Center
Thu 08:25:56 PM 36.4258 -83.5628 27° Northeast 455 524 33,000  Level Indianapolis Center
Thu 08:26:58 PM 36.5519 -83.4814 27° Northeast 455 524 33,000  Level Indianapolis Center
Thu 08:28:00 PM 36.6639 -83.4019 30° Northeast 456 525 33,000  Level Indianapolis Center
Thu 08:29:01 PM 36.7678 -83.3022 38° Northeast 466 536 33,000  Level Indianapolis Center
Thu 08:30:03 PM 36.8731 -83.2022 37° Northeast 466 536 33,000  Level Indianapolis Center
Thu 08:31:04 PM 36.9794 -83.1025 37° Northeast 467 537 33,000  Level Indianapolis Center
Thu 08:32:06 PM 37.0861 -83.0011 37° Northeast 468 539 33,000  Level Indianapolis Center
Thu 08:33:07 PM 37.1928 -82.9003 37° Northeast 469 540 33,000  Level Indianapolis Center
Thu 08:34:09 PM 37.2972 -82.8008 37° Northeast 469 540 33,000  Level Indianapolis Center
Thu 08:35:10 PM 37.4006 -82.7008 38° Northeast 469 540 33,000  Level Indianapolis Center
Thu 08:36:12 PM 37.5211 -82.5853 37° Northeast 467 537 33,000  Level Indianapolis Center
Thu 08:37:13 PM 37.6258 -82.4861 37° Northeast 467 537 33,000  Level Indianapolis Center
Thu 08:38:15 PM 37.7292 -82.3858 37° Northeast 467 537 33,000  Level Indianapolis Center
Thu 08:39:17 PM 37.8317 -82.2844 38° Northeast 467 537 33,000  Level Indianapolis Center
Thu 08:40:18 PM 37.9350 -82.1822 38° Northeast 467 537 33,000  Level Indianapolis Center
Thu 08:41:20 PM 38.0469 -82.0717 38° Northeast 469 540 33,000  Level Indianapolis Center
Thu 08:42:21 PM 38.1514 -81.9686 38° Northeast 471 542 33,000  Level Indianapolis Center
Thu 08:43:23 PM 38.2558 -81.8656 38° Northeast 471 542 33,000  Level Indianapolis Center
Thu 08:44:24 PM 38.3594 -81.7589 39° Northeast 475 547 33,000  Level Indianapolis Center
Thu 08:45:26 PM 38.4497 -81.6308 48° Northeast 484 557 33,000  Level Indianapolis Center
Thu 08:46:27 PM 38.5386 -81.5039 48° Northeast 484 557 33,000  Level Indianapolis Center
Thu 08:47:29 PM 38.6431 -81.3542 48° Northeast 482 555 33,000  Level Indianapolis Center
Thu 08:48:30 PM 38.7306 -81.2267 49° Northeast 482 555 33,000  Level Indianapolis Center
Thu 08:49:31 PM 38.8197 -81.0978 48° Northeast 483 556 33,000  Level Indianapolis Center
Thu 08:50:33 PM 38.9097 -80.9664 49° Northeast 489 563 33,000  Level Indianapolis Center
Thu 08:51:34 PM 38.9997 -80.8353 49° Northeast 489 563 33,000  Level Indianapolis Center
Thu 08:52:36 PM 39.0906 -80.7061 48° Northeast 489 563 33,000  Level Indianapolis Center
Thu 08:53:37 PM 39.1814 -80.5794 47° Northeast 486 559 33,000  Level Indianapolis Center
Thu 08:54:39 PM 39.2733 -80.4514 47° Northeast 486 559 33,000  Level Indianapolis Center
Thu 08:55:40 PM 39.3831 -80.2994 47° Northeast 486 559 33,000  Level Indianapolis Center
Thu 08:56:42 PM 39.4744 -80.1686 48° Northeast 486 559 33,000  Level Indianapolis Center
Thu 08:57:40 PM 39.5578 -80.0533 47° Northeast 484 557 33,000  Level Cleveland Center
Thu 08:58:42 PM 39.6475 -79.9222 48° Northeast 485 558 33,000  Level Cleveland Center
Thu 08:59:44 PM 39.7361 -79.7900 49° Northeast 486 559 33,000  Level Cleveland Center
Thu 09:00:46 PM 39.8236 -79.6600 49° Northeast 486 559 33,000  Level Cleveland Center
Thu 09:01:47 PM 39.9294 -79.5033 49° Northeast 485 558 33,000  Level Cleveland Center
Thu 09:02:49 PM 40.0175 -79.3717 49° Northeast 485 558 33,000  Level Cleveland Center
Thu 09:03:51 PM 40.1056 -79.2372 49° Northeast 485 558 33,000  Level Cleveland Center
Thu 09:04:53 PM 40.1933 -79.1047 49° Northeast 485 558 33,000  Level Cleveland Center
Thu 09:05:55 PM 40.2822 -78.9719 49° Northeast 485 558 33,000  Level Cleveland Center
Thu 09:06:56 PM 40.3703 -78.8386 49° Northeast 485 558 33,000  Level Cleveland Center
Thu 09:07:58 PM 40.4747 -78.6783 49° Northeast 486 559 33,000  Level Cleveland Center
Thu 09:09:00 PM 40.5606 -78.5458 50° Northeast 485 558 33,000  Level Cleveland Center
Thu 09:10:02 PM 40.6464 -78.4117 50° Northeast 485 558 33,000  Level Cleveland Center
Thu 09:11:03 PM 40.7336 -78.2781 49° Northeast 485 558 33,000  Level Cleveland Center
Thu 09:12:05 PM 40.8219 -78.1411 50° Northeast 492 566 33,000  Level Cleveland Center
Thu 09:13:07 PM 40.9258 -77.9772 50° Northeast 492 566 33,000  Level Cleveland Center
Thu 09:14:08 PM 41.0183 -77.8425 48° Northeast 496 571 33,000 -390 Level Cleveland Center
Thu 09:15:10 PM 41.0956 -77.6836 57° Northeast 514 592 32,200 -927 Descending Cleveland Center
Thu 09:16:11 PM 41.1694 -77.5122 60° Northeast 519 597 31,100 -585 Descending Cleveland Center
Thu 09:17:13 PM 41.2372 -77.3581 60° Northeast 509 586 31,000 -581 Descending Cleveland Center
Thu 09:18:15 PM 41.3206 -77.2100 53° Northeast 501 577 29,900 -976 Descending Cleveland Center
Thu 09:19:16 PM 41.4353 -77.0606 44° Northeast 487 560 29,000 -439 Descending Cleveland Center
Thu 09:20:18 PM 41.5342 -76.9356 43° Northeast 488 562 29,000  Level Cleveland Center
Thu 09:21:19 PM 41.6244 -76.8203 44° Northeast 489 563 29,000  Level Cleveland Center
Thu 09:22:12 PM 41.7125 -76.7092 43° Northeast 491 565 29,000  Level Boston Center
Thu 09:23:13 PM 41.8117 -76.5828 44° Northeast 489 563 29,000 -197 Level Boston Center
Thu 09:24:14 PM 41.9103 -76.4572 43° Northeast 487 560 28,600 -1,140 Descending Boston Center
Thu 09:25:14 PM 42.0092 -76.3297 44° Northeast 490 564 26,700 -1,983 Descending Boston Center
Thu 09:26:15 PM 42.1069 -76.2028 44° Northeast 488 562 24,600 -1,328 Descending Boston Center
Thu 09:27:16 PM 42.1872 -76.0539 54° Northeast 498 573 24,000 -295 Descending Boston Center
Thu 09:28:17 PM 42.2489 -75.8761 65° Northeast 520 598 24,000  Level Boston Center
Thu 09:29:18 PM 42.3192 -75.6733 65° Northeast 520 598 24,000 -836 Level Boston Center
Thu 09:30:19 PM 42.3797 -75.4958 65° Northeast 523 602 22,300 -1,820 Descending Boston Center
Thu 09:31:20 PM 42.4069 -75.3103 79° East 521 600 20,300 -1,967 Descending Boston Center
Thu 09:32:21 PM 42.4036 -75.1222 91° East 505 581 18,300 -2,231 Descending Boston Center
Thu 09:33:21 PM 42.4308 -74.9642 77° East 439 505 15,800 -2,030 Descending Boston Center
Thu 09:34:34 PM 42.4869 -74.7719 68° East 415 478 13,800 -1,770 Descending Boston Center
Thu 09:35:23 PM 42.5181 -74.6472 71° East 408 470 12,200 -1,636 Descending Boston Center
Thu 09:35:40 PM 42.5256 -74.6167 72° East 395 455 12,000 -1,180 Descending Boston Center
Thu 09:36:24 PM 42.5519 -74.5122 71° East 378 435 11,000 -1,180 Descending Boston Center
Thu 09:36:41 PM 42.5597 -74.4831 70° East 369 425 10,800 -590 Descending Boston Center
Thu 09:37:25 PM 42.5783 -74.3867 75° East 348 400 10,400 -600 Descending Boston Center
Thu 09:37:41 PM 42.5744 -74.3600 101° East 327 376 10,200 -984 Descending Boston Center
Thu 09:38:26 PM 42.5750 -74.2689 89° East 308 354 9,400 -1,180 Descending Boston Center
Thu 09:38:42 PM 42.5728 -74.2431 97° East 295 339 9,000 -1,672 Descending Boston Center
Thu 09:39:27 PM 42.5731 -74.1553 90° East 300 345 7,700 -1,672 Descending Boston Center
Thu 09:39:43 PM 42.5700 -74.1317 100° East 296 341 7,300 -1,700 Descending Boston Center
Thu 09:40:27 PM 42.5728 -74.0453 87° East 293 337 6,000 -1,500 Descending Boston Center
Thu 09:40:43 PM 42.5772 -74.0236 74° East 286 329 5,800 -984 Descending Boston Center
Thu 09:41:28 PM 42.5953 -73.9436 73° East 280 322 5,000 -1,082 Descending Boston Center
Thu 09:41:44 PM 42.6003 -73.9119 78° East 280 322 4,700 -935 Descending Boston Center
Thu 09:42:45 PM 42.6228 -73.8122 73° East 278 320 3,800 -1,019 Descending Boston Center
Thu 09:43:30 PM 42.6417 -73.7364 71° East 276 318 2,900 -1,100 Descending Boston Center
Thu 09:43:45 PM 42.6450 -73.7150 78° East 276 318 2,700 -885 Descending Boston Center
Thu 09:44:31 PM 42.6817 -73.6636 46° Northeast 252 290 2,000 -689 Descending Boston Center
Thu 09:44:46 PM 42.6933 -73.6614 North 229 264 2,000  Level Boston Center
Thu 09:45:32 PM 42.7394 -73.6600 North 211 243 2,000  Level Boston Center
Thu 09:45:46 PM 42.7461 -73.6672 321° Northwest 171 197 2,000 -492 Level Boston Center
Thu 09:46:33 PM 42.7517 -73.7094 280° West 144 166 1,500 -590 Descending Boston Center
Thu 09:46:47 PM 42.7517 -73.7189 270° West 114 131 1,400 -700 Descending Boston Center
Thu 09:47:33 PM 42.7506 -73.7558 268° West 126 145 800 -689 Descending Boston Center
Thu 09:47:48 PM 42.7497 -73.7647 263° West 118 136 700 -590 Descending Boston Center
Thu 09:48:34 PM 42.7494 -73.8056 269° West 127 146 200 -652 Descending Boston Center

Login

Don't have an account? Register now (free) for customized features, flight alerts, and more!